createdAt,value
2023-05-19T00:01:55.366Z,10.59
2023-05-19T00:05:59.028Z,10.57
2023-05-19T00:10:02.633Z,10.58
2023-05-19T00:14:09.582Z,10.60
2023-05-19T00:18:14.228Z,10.61
2023-05-19T00:22:17.060Z,10.59
2023-05-19T00:26:19.803Z,10.51
2023-05-19T00:30:23.036Z,10.47
2023-05-19T00:34:25.843Z,10.39
2023-05-19T00:38:43.912Z,10.35
2023-05-19T00:42:47.944Z,10.31
2023-05-19T00:46:51.869Z,10.26
2023-05-19T00:51:04.994Z,10.22
2023-05-19T00:55:09.319Z,10.20
2023-05-19T00:59:16.108Z,10.16
2023-05-19T01:07:25.476Z,10.18
2023-05-19T01:11:28.302Z,10.20
2023-05-19T01:15:37.320Z,10.19
2023-05-19T01:19:56.318Z,10.18
2023-05-19T01:24:32.692Z,10.13
2023-05-19T01:28:58.136Z,10.10
2023-05-19T01:33:05.013Z,10.13
2023-05-19T01:37:08.614Z,10.11
2023-05-19T01:41:19.369Z,10.02
2023-05-19T01:45:26.376Z,9.97
2023-05-19T01:49:29.609Z,9.91
2023-05-19T01:53:43.927Z,9.86
2023-05-19T01:58:01.522Z,9.81
2023-05-19T02:02:22.454Z,9.83
2023-05-19T02:06:53.679Z,9.84
2023-05-19T02:11:08.512Z,9.85
2023-05-19T02:15:17.869Z,9.89
2023-05-19T02:19:39.569Z,9.97
2023-05-19T02:23:42.766Z,10.03
2023-05-19T02:27:49.719Z,10.08
2023-05-19T02:31:52.590Z,10.16
2023-05-19T02:35:57.725Z,10.23
2023-05-19T02:40:01.124Z,10.27
2023-05-19T02:44:05.280Z,10.28
2023-05-19T02:48:14.819Z,10.31
2023-05-19T02:52:17.661Z,10.32
2023-05-19T02:56:49.600Z,10.33
2023-05-19T03:00:52.948Z,10.35
2023-05-19T03:04:55.709Z,10.36
2023-05-19T03:08:59.134Z,10.37
2023-05-19T03:13:17.190Z,10.41
2023-05-19T03:17:20.141Z,10.43
2023-05-19T03:22:16.521Z,10.46
2023-05-19T03:26:19.341Z,10.52
2023-05-19T03:30:22.521Z,10.53
2023-05-19T03:34:25.523Z,10.56
2023-05-19T03:38:28.231Z,10.60
2023-05-19T03:42:31.099Z,10.62
2023-05-19T03:46:33.879Z,10.69
2023-05-19T03:50:38.168Z,10.81
2023-05-19T03:54:42.722Z,10.91
2023-05-19T03:58:47.076Z,10.98
2023-05-19T04:02:49.982Z,10.99
2023-05-19T04:06:54.005Z,11.02
2023-05-19T04:10:59.856Z,11.06
2023-05-19T04:15:02.663Z,11.12
2023-05-19T04:19:05.786Z,11.16
2023-05-19T04:23:08.778Z,11.20
2023-05-19T04:27:38.929Z,11.27
2023-05-19T04:31:42.411Z,11.34
2023-05-19T04:35:51.806Z,11.44
2023-05-19T04:39:54.632Z,11.49
2023-05-19T04:43:58.399Z,11.57
2023-05-19T04:48:02.033Z,11.67
2023-05-19T04:52:11.100Z,11.73
2023-05-19T04:56:16.343Z,11.78
2023-05-19T05:00:19.790Z,11.84
2023-05-19T05:04:24.252Z,11.91
2023-05-19T05:08:32.197Z,12.01
2023-05-19T05:12:35.490Z,12.07
2023-05-19T05:17:07.935Z,12.09
2023-05-19T05:21:11.173Z,12.10
2023-05-19T05:25:14.846Z,12.13
2023-05-19T05:29:44.113Z,12.10
2023-05-19T05:33:47.068Z,12.10
2023-05-19T05:37:50.359Z,12.10
2023-05-19T05:41:53.192Z,12.10
2023-05-19T05:45:57.233Z,12.12
2023-05-19T05:50:26.205Z,12.17
2023-05-19T05:54:29.225Z,12.28
2023-05-19T05:58:36.354Z,12.38
2023-05-19T06:02:40.234Z,12.45
2023-05-19T06:06:43.176Z,12.42
2023-05-19T06:10:47.322Z,12.41
2023-05-19T06:14:50.397Z,12.36
2023-05-19T06:18:53.408Z,12.35
2023-05-19T06:27:17.142Z,12.46
2023-05-19T06:31:20.494Z,12.52
2023-05-19T06:35:23.812Z,12.55
2023-05-19T06:39:27.061Z,12.50
2023-05-19T06:43:30.384Z,12.53
2023-05-19T06:47:33.700Z,12.65
2023-05-19T06:51:40.163Z,12.78
2023-05-19T06:55:57.436Z,12.91
2023-05-19T07:00:02.476Z,13.13
2023-05-19T07:04:06.019Z,13.35
2023-05-19T07:08:09.200Z,13.58
2023-05-19T07:12:12.596Z,13.76
2023-05-19T07:16:17.304Z,13.84
2023-05-19T07:20:21.137Z,13.85
2023-05-19T07:24:24.369Z,13.89
2023-05-19T07:28:27.493Z,13.99
2023-05-19T07:32:30.624Z,14.04
2023-05-19T07:36:34.405Z,14.22
2023-05-19T07:40:37.688Z,14.38
2023-05-19T07:44:40.922Z,14.55
2023-05-19T07:48:44.267Z,14.49
2023-05-19T07:52:47.406Z,14.44
2023-05-19T07:56:50.656Z,14.34
2023-05-19T08:00:53.930Z,14.25
2023-05-19T08:04:58.170Z,14.22
2023-05-19T08:09:01.407Z,14.28
2023-05-19T08:13:05.355Z,14.38
2023-05-19T08:17:08.556Z,14.40
2023-05-19T08:21:12.060Z,14.43
2023-05-19T08:25:15.186Z,14.41
2023-05-19T08:29:18.278Z,14.38
2023-05-19T08:33:21.840Z,14.40
2023-05-19T08:37:25.208Z,14.32
2023-05-19T08:41:28.352Z,14.34
2023-05-19T08:45:34.790Z,14.37
2023-05-19T08:49:45.938Z,14.36
2023-05-19T08:53:53.872Z,14.34
2023-05-19T08:57:57.218Z,14.28
2023-05-19T09:02:00.406Z,14.21
2023-05-19T09:06:14.375Z,14.21
2023-05-19T09:10:17.715Z,14.33
2023-05-19T09:14:20.831Z,14.47
2023-05-19T09:18:26.583Z,14.56
2023-05-19T09:22:30.702Z,14.70
2023-05-19T09:26:42.819Z,14.85
2023-05-19T09:31:13.071Z,14.83
2023-05-19T09:35:20.723Z,14.90
2023-05-19T09:39:25.245Z,15.04
2023-05-19T09:43:30.315Z,15.08
2023-05-19T09:47:40.088Z,15.25
2023-05-19T09:51:44.056Z,15.42
2023-05-19T09:55:48.682Z,15.46
2023-05-19T09:59:51.799Z,15.54
2023-05-19T10:03:55.582Z,15.67
2023-05-19T10:07:58.710Z,15.75
2023-05-19T10:12:03.530Z,15.71
2023-05-19T10:16:07.087Z,15.66
2023-05-19T10:20:12.854Z,15.72
2023-05-19T10:24:15.892Z,15.69
2023-05-19T10:28:25.497Z,15.68
2023-05-19T10:32:32.740Z,15.53
2023-05-19T10:36:59.703Z,15.44
2023-05-19T10:41:21.619Z,15.34
2023-05-19T10:45:27.918Z,15.24
2023-05-19T10:49:35.631Z,15.14
2023-05-19T10:53:46.397Z,15.15
2023-05-19T10:57:58.414Z,15.15
2023-05-19T11:02:05.786Z,15.10
2023-05-19T11:06:18.924Z,15.07
2023-05-19T11:10:25.023Z,15.22
2023-05-19T11:14:28.150Z,15.38
2023-05-19T11:18:32.188Z,15.58
2023-05-19T11:22:36.382Z,15.64
2023-05-19T11:26:45.637Z,15.64
2023-05-19T11:30:52.457Z,15.71
2023-05-19T11:34:57.720Z,15.80
2023-05-19T11:39:02.749Z,15.83
2023-05-19T11:43:05.879Z,15.84
2023-05-19T11:47:09.720Z,15.83
2023-05-19T11:51:12.567Z,15.80
2023-05-19T11:55:16.523Z,15.88
2023-05-19T11:59:29.862Z,15.96
2023-05-19T12:03:33.160Z,15.99
2023-05-19T12:07:37.830Z,16.06
2023-05-19T12:11:40.915Z,15.97
2023-05-19T12:15:43.909Z,15.94
2023-05-19T12:19:48.792Z,15.92
2023-05-19T12:23:52.075Z,15.90
2023-05-19T12:28:04.691Z,15.91
2023-05-19T12:32:09.153Z,15.96
2023-05-19T12:36:13.673Z,15.98
2023-05-19T12:40:17.087Z,16.00
2023-05-19T12:44:20.044Z,15.98
2023-05-19T12:48:23.050Z,15.94
2023-05-19T12:52:29.038Z,15.88
2023-05-19T12:56:31.839Z,15.84
2023-05-19T13:00:41.223Z,15.76
2023-05-19T13:04:44.385Z,15.79
2023-05-19T13:08:47.391Z,15.80
2023-05-19T13:12:50.229Z,15.84
2023-05-19T13:16:53.314Z,15.92
2023-05-19T13:20:56.530Z,15.95
2023-05-19T13:24:59.922Z,16.04
2023-05-19T13:29:03.144Z,16.04
2023-05-19T13:33:06.318Z,16.08
2023-05-19T13:37:10.086Z,16.03
2023-05-19T13:41:15.939Z,15.96
2023-05-19T13:45:19.130Z,15.96
2023-05-19T13:49:22.818Z,15.93
2023-05-19T13:53:27.386Z,15.88
2023-05-19T13:57:30.618Z,15.91
2023-05-19T14:01:33.668Z,16.04
2023-05-19T14:05:37.413Z,16.20
2023-05-19T14:09:40.414Z,16.38
2023-05-19T14:13:43.513Z,16.44
2023-05-19T14:17:46.591Z,16.48
2023-05-19T14:21:50.858Z,16.50
2023-05-19T14:25:53.960Z,16.50
2023-05-19T14:29:57.351Z,16.36
2023-05-19T14:34:00.693Z,16.25
2023-05-19T14:38:03.850Z,16.20
2023-05-19T14:42:06.760Z,16.15
2023-05-19T14:46:09.818Z,16.12
2023-05-19T14:50:13.243Z,16.14
2023-05-19T14:54:16.037Z,16.20
2023-05-19T14:58:27.779Z,16.23
2023-05-19T15:02:31.854Z,16.23
2023-05-19T15:06:35.558Z,16.21
2023-05-19T15:10:38.680Z,16.20
2023-05-19T15:14:41.870Z,16.15
2023-05-19T15:18:45.052Z,16.20
2023-05-19T15:22:48.842Z,16.20
2023-05-19T15:26:52.509Z,16.04
2023-05-19T15:30:55.551Z,15.75
2023-05-19T15:34:58.535Z,15.57
2023-05-19T15:39:01.552Z,15.47
2023-05-19T15:43:04.478Z,15.45
2023-05-19T15:47:07.315Z,15.45
2023-05-19T15:51:11.570Z,15.61
2023-05-19T15:55:14.513Z,15.79
2023-05-19T15:59:17.346Z,15.94
2023-05-19T16:03:22.539Z,16.03
2023-05-19T16:07:25.546Z,16.05
2023-05-19T16:11:28.344Z,16.07
2023-05-19T16:15:31.224Z,16.06
2023-05-19T16:19:34.395Z,16.04
2023-05-19T16:23:37.379Z,16.00
2023-05-19T16:27:40.446Z,15.91
2023-05-19T16:31:43.280Z,15.81
2023-05-19T16:35:46.277Z,15.74
2023-05-19T16:39:49.130Z,15.67
2023-05-19T16:43:52.267Z,15.65
2023-05-19T16:47:55.349Z,15.68
2023-05-19T16:51:58.414Z,15.63
2023-05-19T16:56:01.476Z,15.58
2023-05-19T17:00:04.825Z,15.57
2023-05-19T17:04:08.293Z,15.51
2023-05-19T17:08:12.693Z,15.47
2023-05-19T17:12:15.512Z,15.43
2023-05-19T17:16:18.458Z,15.41
2023-05-19T17:20:21.561Z,15.38
2023-05-19T17:24:24.589Z,15.34
2023-05-19T17:28:27.781Z,15.27
2023-05-19T17:32:35.798Z,15.22
2023-05-19T17:36:39.275Z,15.22
2023-05-19T17:40:42.367Z,15.22
2023-05-19T17:44:45.343Z,15.22
2023-05-19T17:48:48.400Z,15.20
2023-05-19T17:52:51.601Z,15.20
2023-05-19T17:56:58.483Z,15.24
2023-05-19T18:01:01.990Z,15.22
2023-05-19T18:05:05.863Z,15.15
2023-05-19T18:09:10.566Z,15.12
2023-05-19T18:13:14.354Z,15.08
2023-05-19T18:17:17.582Z,15.01
2023-05-19T18:21:20.780Z,14.92
2023-05-19T18:25:24.369Z,14.89
2023-05-19T18:29:28.190Z,14.88
2023-05-19T18:33:31.921Z,14.90
2023-05-19T18:37:35.221Z,14.97
2023-05-19T18:41:41.211Z,15.03
2023-05-19T18:45:44.000Z,15.09
2023-05-19T18:49:47.581Z,15.13
2023-05-19T18:53:50.824Z,15.16
2023-05-19T18:57:54.523Z,15.17
2023-05-19T19:01:57.632Z,15.21
2023-05-19T19:06:00.772Z,15.20
2023-05-19T19:10:03.910Z,15.16
2023-05-19T19:14:07.372Z,15.12
2023-05-19T19:18:11.397Z,15.12
2023-05-19T19:22:14.348Z,15.10
2023-05-19T19:26:17.501Z,15.08
2023-05-19T19:30:20.491Z,15.08
2023-05-19T19:34:23.628Z,15.04
2023-05-19T19:38:26.644Z,15.05
2023-05-19T19:42:31.825Z,15.00
2023-05-19T19:46:35.851Z,14.93
2023-05-19T19:50:38.996Z,14.89
2023-05-19T19:54:42.229Z,14.84
2023-05-19T19:58:45.357Z,14.81
2023-05-19T20:03:03.860Z,14.72
2023-05-19T20:07:09.231Z,14.60
2023-05-19T20:11:12.240Z,14.55
2023-05-19T20:15:15.595Z,14.48
2023-05-19T20:19:18.886Z,14.48
2023-05-19T20:23:22.294Z,14.46
2023-05-19T20:27:25.531Z,14.39
2023-05-19T20:31:28.411Z,14.36
2023-05-19T20:35:32.062Z,14.32
2023-05-19T20:39:35.253Z,14.25
2023-05-19T20:43:38.236Z,14.20
2023-05-19T20:47:41.381Z,14.17
2023-05-19T20:51:44.361Z,14.15
2023-05-19T20:55:47.693Z,14.12
2023-05-19T20:59:51.106Z,14.13
2023-05-19T21:03:54.469Z,14.13
2023-05-19T21:07:57.678Z,14.15
2023-05-19T21:12:00.550Z,14.16
2023-05-19T21:16:03.789Z,14.15
2023-05-19T21:20:07.459Z,14.19
2023-05-19T21:24:13.216Z,14.16
2023-05-19T21:28:16.463Z,14.13
2023-05-19T21:32:20.464Z,14.15
2023-05-19T21:36:23.651Z,14.11
2023-05-19T21:40:26.777Z,14.07
2023-05-19T21:44:31.403Z,14.04
2023-05-19T21:48:34.429Z,14.03
2023-05-19T21:52:38.645Z,14.06
2023-05-19T21:56:41.827Z,14.08
2023-05-19T22:00:53.174Z,14.08
2023-05-19T22:04:56.280Z,14.07
2023-05-19T22:09:01.250Z,14.05
2023-05-19T22:13:04.223Z,14.02
2023-05-19T22:17:07.383Z,14.04
2023-05-19T22:21:10.785Z,14.01
2023-05-19T22:25:13.971Z,13.95
2023-05-19T22:29:18.711Z,13.86
2023-05-19T22:33:22.062Z,13.82
2023-05-19T22:37:25.192Z,13.85
2023-05-19T22:41:28.282Z,13.88
2023-05-19T22:45:32.014Z,13.87
2023-05-19T22:49:35.161Z,13.87
2023-05-19T22:53:38.219Z,13.89
2023-05-19T22:57:41.206Z,13.85
2023-05-19T23:01:46.562Z,13.85
2023-05-19T23:05:49.905Z,13.84
2023-05-19T23:09:52.936Z,13.83
2023-05-19T23:13:56.167Z,13.80
2023-05-19T23:17:59.124Z,13.79
2023-05-19T23:22:02.422Z,13.75
2023-05-19T23:26:06.005Z,13.73
2023-05-19T23:30:09.419Z,13.72
2023-05-19T23:34:12.710Z,13.74
2023-05-19T23:38:16.478Z,13.73
2023-05-19T23:42:19.732Z,13.69
2023-05-19T23:46:23.078Z,13.69
2023-05-19T23:50:26.385Z,13.72
2023-05-19T23:54:30.419Z,13.70
2023-05-19T23:58:33.522Z,13.70
